Christian Reinauer — WDA6472 — position and weather

sailwx.info

Track history (hours):
 
Tides and Currents Weather Stations Pressure Air Temp Water Temp Dewpoint Dewpoint Depression Visibility Wind Speed Wind Dir Waves Ship Positions

Christian Reinauer

Owner: REINAUER TRANSPORTATION CO LLC, STATEN ISLAND, NY. More information available from US FCC via Universal Licensing System and Coast Guard Vessel Documentation Center.

Last reported at 2015-Jan-28 10:33 UTC. Time now 2015-Jan-28 12:15 UTC.
Position N 25°40' W 080°02'.

Length 170 m; draft 7.6 m.

Type: Ship (hazmat cat B). MMSI: 366832740.

Date/timePositionNaut miles runAvg speedWind from/ knotsBaromVisibWave heightAir tempDewpointWater temp
2015-Jan-28 10:33N 25°40' W 080°02'9 9.1
2015-Jan-28 09:33N 25°49' W 080°02'9 8.8
2015-Jan-28 08:33N 25°58' W 080°03'8 7.9
2015-Jan-28 07:33N 26°05' W 080°04'3 2.6
2015-Jan-28 06:32N 26°06' W 080°07'0 0.0
2015-Jan-28 05:32N 26°06' W 080°07'0 0.0
2015-Jan-28 04:29N 26°06' W 080°07'0 0.0
2015-Jan-28 03:32N 26°06' W 080°07'0 0.0
2015-Jan-28 02:32N 26°06' W 080°07'0 0.0
2015-Jan-28 01:20N 26°06' W 080°07'0 0.0
2015-Jan-28 00:32N 26°06' W 080°07'0 0.0
2015-Jan-27 23:32N 26°06' W 080°07'0 0.0
2015-Jan-27 22:32N 26°06' W 080°07'0 0.0
2015-Jan-27 21:23N 26°06' W 080°07'0 0.0
2015-Jan-27 20:20N 26°06' W 080°07'0 0.0
2015-Jan-27 19:26N 26°06' W 080°07'0 0.0
2015-Jan-27 18:26N 26°06' W 080°07'0 0.0
2015-Jan-27 17:34N 26°06' W 080°07'3 3.1
2015-Jan-27 16:33N 26°06' W 080°04'1111.1
2015-Jan-27 15:33N 25°55' W 080°02'1212.2
2015-Jan-27 14:33N 25°42' W 080°01'  
Track history (hours):
 
Tides and Currents Weather Stations Pressure Air Temp Water Temp Dewpoint Dewpoint Depression Visibility Wind Speed Wind Dir Waves Ship Positions

Christian Reinauer

Owner: REINAUER TRANSPORTATION CO LLC, STATEN ISLAND, NY. More information available from US FCC via Universal Licensing System and Coast Guard Vessel Documentation Center.

Last reported at 2015-Jan-28 10:33 UTC. Time now 2015-Jan-28 12:15 UTC.
Position N 25°40' W 080°02'.

Length 170 m; draft 7.6 m.

Type: Ship (hazmat cat B). MMSI: 366832740.

Date/timePositionNaut miles runAvg speedWind from/ knotsBaromVisibWave heightAir tempDewpointWater temp
2015-Jan-28 10:33N 25°40' W 080°02'9 9.1
2015-Jan-28 09:33N 25°49' W 080°02'9 8.8
2015-Jan-28 08:33N 25°58' W 080°03'8 7.9
2015-Jan-28 07:33N 26°05' W 080°04'3 2.6
2015-Jan-28 06:32N 26°06' W 080°07'0 0.0
2015-Jan-28 05:32N 26°06' W 080°07'0 0.0
2015-Jan-28 04:29N 26°06' W 080°07'0 0.0
2015-Jan-28 03:32N 26°06' W 080°07'0 0.0
2015-Jan-28 02:32N 26°06' W 080°07'0 0.0
2015-Jan-28 01:20N 26°06' W 080°07'0 0.0
2015-Jan-28 00:32N 26°06' W 080°07'0 0.0
2015-Jan-27 23:32N 26°06' W 080°07'0 0.0
2015-Jan-27 22:32N 26°06' W 080°07'0 0.0
2015-Jan-27 21:23N 26°06' W 080°07'0 0.0
2015-Jan-27 20:20N 26°06' W 080°07'0 0.0
2015-Jan-27 19:26N 26°06' W 080°07'0 0.0
2015-Jan-27 18:26N 26°06' W 080°07'0 0.0
2015-Jan-27 17:34N 26°06' W 080°07'3 3.1
2015-Jan-27 16:33N 26°06' W 080°04'1111.1
2015-Jan-27 15:33N 25°55' W 080°02'1212.2
2015-Jan-27 14:33N 25°42' W 080°01'  

Dump ship's entire track history